Time;durP1;ratioP1;P1;durP2;ratioP2;P2;SDS_P1;SDS_P2;PMS_P1;PMS_P2;Temp;Humidity;BMP_temperature;BMP_pressure;BME280_temperature;BME280_humidity;BME280_pressure;Samples;Min_cycle;Max_cycle;Signal;HPM_P1;HPM_P2
2023/04/02 00:01:46;;;;;;;2.20;1.42;;;;;;;3.38;100.00;101025.41;6275569;28;20053;-70
2023/04/02 00:05:51;;;;;;;1.33;0.90;;;;;;;3.19;100.00;101037.88;6275745;28;20048;-70
2023/04/02 00:08:55;;;;;;;1.38;1.20;;;;;;;3.09;100.00;101049.28;6275556;28;20048;-70
2023/04/02 00:11:59;;;;;;;6.45;1.25;;;;;;;3.15;100.00;101050.06;6275317;28;20474;-70
2023/04/02 00:15:02;;;;;;;2.65;1.52;;;;;;;3.10;100.00;101069.22;6275589;28;20535;-71
2023/04/02 00:18:04;;;;;;;4.18;1.63;;;;;;;3.18;100.00;101068.19;6274786;28;20519;-70
2023/04/02 00:21:14;;;;;;;4.50;1.10;;;;;;;3.22;100.00;101069.81;6275045;28;20437;-70
2023/04/02 00:24:19;;;;;;;1.77;1.20;;;;;;;3.17;100.00;101071.66;6275208;28;20227;-70
2023/04/02 00:27:21;;;;;;;9.40;1.40;;;;;;;3.16;100.00;101082.94;6275067;28;20041;-70
2023/04/02 00:30:24;;;;;;;4.18;1.65;;;;;;;3.00;100.00;101086.69;6275134;28;20044;-70
2023/04/02 00:33:27;;;;;;;2.15;1.23;;;;;;;3.13;100.00;101090.75;6274695;28;20356;-70
2023/04/02 00:36:32;;;;;;;1.80;0.93;;;;;;;3.13;100.00;101089.91;6274999;28;20044;-70
2023/04/02 00:39:40;;;;;;;2.00;0.98;;;;;;;3.17;100.00;101102.81;6266918;28;20052;-70
2023/04/02 00:42:43;;;;;;;2.90;0.95;;;;;;;3.05;100.00;101111.69;6275057;28;20044;-70
2023/04/02 00:45:51;;;;;;;1.48;1.10;;;;;;;2.92;100.00;101102.38;6274334;28;20351;-70
2023/04/02 00:48:57;;;;;;;3.95;1.33;;;;;;;2.94;100.00;101116.19;6274883;28;20048;-70
2023/04/02 00:52:02;;;;;;;4.88;0.85;;;;;;;3.05;100.00;101116.03;6274826;28;20068;-70
2023/04/02 00:55:09;;;;;;;1.25;1.02;;;;;;;2.99;100.00;101118.69;6274979;28;20052;-70
2023/04/02 00:58:20;;;;;;;7.82;1.70;;;;;;;3.03;100.00;101125.56;6274588;28;20175;-70
2023/04/02 01:01:25;;;;;;;3.03;1.08;;;;;;;3.11;100.00;101133.22;6274666;28;20064;-70
2023/04/02 01:04:31;;;;;;;3.03;0.88;;;;;;;2.90;100.00;101135.28;6274737;28;20045;-70
2023/04/02 01:07:51;;;;;;;1.88;0.90;;;;;;;2.99;100.00;101142.06;6274553;28;20041;-70
2023/04/02 01:11:02;;;;;;;5.97;1.00;;;;;;;2.89;100.00;101148.28;6274475;28;20377;-70
2023/04/02 01:14:16;;;;;;;3.60;0.93;;;;;;;2.84;100.00;101147.50;6274740;28;20049;-70
2023/04/02 01:17:32;;;;;;;3.55;1.20;;;;;;;2.92;100.00;101154.28;6274043;28;20341;-70
2023/04/02 01:20:54;;;;;;;2.05;0.80;;;;;;;2.89;100.00;101154.31;6274346;28;20056;-70
2023/04/02 01:24:04;;;;;;;1.23;0.75;;;;;;;2.93;100.00;101156.00;6274732;28;20049;-70
2023/04/02 01:27:13;;;;;;;2.95;0.90;;;;;;;2.92;100.00;101167.28;6274150;28;20048;-70
2023/04/02 01:30:17;;;;;;;2.67;0.98;;;;;;;2.80;100.00;101172.63;6274632;28;20048;-70
2023/04/02 01:33:20;;;;;;;5.10;1.13;;;;;;;2.85;100.00;101183.81;6275604;28;20135;-70
2023/04/02 01:36:29;;;;;;;6.10;0.95;;;;;;;2.82;100.00;101183.88;6279065;28;20045;-70
2023/04/02 01:39:43;;;;;;;0.90;0.70;;;;;;;2.74;100.00;101181.38;6279206;28;20049;-70
2023/04/02 01:42:52;;;;;;;1.25;0.88;;;;;;;2.63;100.00;101193.63;6278989;28;20045;-70
2023/04/02 01:45:57;;;;;;;5.38;1.05;;;;;;;2.64;100.00;101190.16;6278506;28;20045;-70
2023/04/02 01:49:02;;;;;;;4.32;1.10;;;;;;;2.68;100.00;101206.53;6278393;28;20453;-70
2023/04/02 01:52:04;;;;;;;3.72;0.73;;;;;;;2.69;100.00;101205.69;6278571;28;20131;-70
2023/04/02 01:55:07;;;;;;;3.67;0.70;;;;;;;2.70;100.00;101213.44;6278767;28;20052;-70
2023/04/02 01:58:11;;;;;;;1.85;0.57;;;;;;;2.75;100.00;101222.00;6278305;28;20041;-70
2023/04/02 02:01:17;;;;;;;2.53;0.88;;;;;;;2.79;100.00;101231.47;6278640;28;20131;-70
2023/04/02 02:04:19;;;;;;;11.07;1.90;;;;;;;2.65;100.00;101235.13;6278516;28;20059;-70
2023/04/02 02:07:22;;;;;;;1.27;0.73;;;;;;;2.62;100.00;101242.94;6278168;28;20052;-70
2023/04/02 02:10:27;;;;;;;3.97;1.25;;;;;;;2.53;100.00;101238.72;6278193;28;20502;-70
2023/04/02 02:13:28;;;;;;;3.28;0.88;;;;;;;2.56;100.00;101253.41;6278164;28;20045;-70
2023/04/02 02:16:32;;;;;;;4.88;0.50;;;;;;;2.68;100.00;101248.03;6277975;28;20448;-70
2023/04/02 02:19:38;;;;;;;3.00;1.27;;;;;;;2.64;100.00;101255.03;6271849;28;20045;-70
2023/04/02 02:22:43;;;;;;;1.95;0.73;;;;;;;2.68;100.00;101266.22;6277367;28;20527;-70
2023/04/02 02:25:46;;;;;;;2.63;0.70;;;;;;;2.65;100.00;101261.94;6275320;28;20049;-70
2023/04/02 02:28:52;;;;;;;3.30;1.10;;;;;;;2.65;100.00;101268.88;6277743;28;20041;-70
2023/04/02 02:31:57;;;;;;;4.93;0.75;;;;;;;2.62;100.00;101277.53;6277867;28;20037;-70
2023/04/02 02:35:05;;;;;;;2.78;1.17;;;;;;;2.60;100.00;101287.09;6277031;28;20052;-70
2023/04/02 02:38:28;;;;;;;3.33;0.70;;;;;;;2.60;100.00;101297.47;6274136;28;20052;-70
2023/04/02 02:41:35;;;;;;;4.07;1.00;;;;;;;2.44;100.00;101312.31;6276676;28;20049;-70
2023/04/02 02:44:42;;;;;;;1.67;0.52;;;;;;;2.53;100.00;101312.22;6274861;28;20053;-70
2023/04/02 02:47:47;;;;;;;0.93;0.45;;;;;;;2.49;100.00;101326.09;6275078;28;20041;-70
2023/04/02 02:50:49;;;;;;;2.78;0.82;;;;;;;2.52;100.00;101330.41;6276658;28;20114;-70
2023/04/02 02:53:55;;;;;;;2.90;1.02;;;;;;;2.54;100.00;101342.50;6277187;28;20045;-70
2023/04/02 02:57:03;;;;;;;1.65;0.60;;;;;;;2.58;100.00;101337.25;6276927;28;20049;-70
2023/04/02 03:00:08;;;;;;;1.52;0.50;;;;;;;2.61;100.00;101339.81;6273282;28;20049;-70
2023/04/02 03:03:15;;;;;;;10.45;1.13;;;;;;;2.56;100.00;101344.22;6277191;28;20118;-70
2023/04/02 03:06:19;;;;;;;1.65;0.77;;;;;;;2.50;100.00;101351.19;6276793;28;20056;-70
2023/04/02 03:09:32;;;;;;;1.67;0.38;;;;;;;2.54;100.00;101364.97;6276813;28;20037;-70
2023/04/02 03:12:43;;;;;;;0.95;0.70;;;;;;;2.46;100.00;101361.63;6273846;28;20055;-70
2023/04/02 03:15:55;;;;;;;5.43;0.90;;;;;;;2.62;100.00;101367.50;6276473;28;20066;-70
2023/04/02 03:19:05;;;;;;;0.40;0.40;;;;;;;2.52;100.00;101369.31;6274293;28;20044;-70
2023/04/02 03:22:13;;;;;;;0.77;0.52;;;;;;;2.43;100.00;101377.19;6276757;28;20619;-70
2023/04/02 03:25:25;;;;;;;4.00;0.82;;;;;;;2.43;100.00;101384.97;6276763;28;20357;-70
2023/04/02 03:28:30;;;;;;;0.93;0.40;;;;;;;2.56;100.00;101388.31;6276537;28;20361;-70
2023/04/02 03:31:35;;;;;;;0.50;0.50;;;;;;;2.57;100.00;101390.88;6276216;28;20130;-70
2023/04/02 03:34:42;;;;;;;0.50;0.50;;;;;;;2.56;100.00;101398.69;6276708;28;20179;-70
2023/04/02 03:37:48;;;;;;;3.60;0.47;;;;;;;2.58;100.00;101400.38;6276184;28;20052;-70
2023/04/02 03:40:58;;;;;;;2.08;0.70;;;;;;;2.30;100.00;101410.16;6276619;28;20069;-70
2023/04/02 03:44:03;;;;;;;0.75;0.60;;;;;;;2.46;100.00;101406.56;6276316;28;20053;-70
2023/04/02 03:47:12;;;;;;;3.50;0.82;;;;;;;2.62;100.00;101417.63;6274331;28;20045;-70
2023/04/02 03:50:20;;;;;;;2.58;0.60;;;;;;;2.54;100.00;101425.53;6254547;28;20052;-70
2023/04/02 03:53:24;;;;;;;0.45;0.30;;;;;;;2.56;100.00;101429.81;6256951;28;20053;-70
2023/04/02 03:56:30;;;;;;;3.60;0.80;;;;;;;2.51;100.00;101441.09;6253679;28;20605;-70
2023/04/02 03:59:39;;;;;;;2.40;0.50;;;;;;;2.56;100.00;101448.84;6253122;28;20045;-70
2023/04/02 04:02:45;;;;;;;3.78;0.60;;;;;;;2.57;100.00;101449.69;6255514;28;20190;-70
2023/04/02 04:05:53;;;;;;;1.30;0.52;;;;;;;2.56;100.00;101453.19;6254886;28;20052;-70
2023/04/02 04:08:58;;;;;;;1.42;0.68;;;;;;;2.56;100.00;101463.56;6253018;28;20045;-70
2023/04/02 04:12:09;;;;;;;0.75;0.50;;;;;;;2.48;100.00;101467.06;6253813;28;20060;-70
2023/04/02 04:15:19;;;;;;;3.33;0.98;;;;;;;2.52;100.00;101468.75;6253139;28;20045;-70
2023/04/02 04:18:28;;;;;;;;;;;;;;;2.35;100.00;101474.94;6257418;28;20044;-69
2023/04/02 04:21:36;;;;;;;0.88;0.63;;;;;;;2.44;100.00;101477.47;6258032;28;19924;-70
2023/04/02 04:24:38;;;;;;;7.18;0.85;;;;;;;2.47;100.00;101490.44;6255316;28;20715;-70
2023/04/02 04:27:46;;;;;;;0.70;0.40;;;;;;;2.54;100.00;101499.88;6255111;28;20550;-70
2023/04/02 04:30:52;;;;;;;2.72;0.52;;;;;;;2.51;100.00;101502.50;6252331;28;20044;-70
2023/04/02 04:34:04;;;;;;;0.30;0.30;;;;;;;2.48;100.00;101503.38;6256993;28;20052;-70
2023/04/02 04:37:20;;;;;;;3.67;0.77;;;;;;;2.46;100.00;101512.91;6255871;28;20047;-70
2023/04/02 04:40:24;;;;;;;0.52;0.40;;;;;;;2.53;100.00;101524.94;6257426;28;20130;-70
2023/04/02 04:43:36;;;;;;;7.47;0.70;;;;;;;2.50;100.00;101522.41;6255779;28;20124;-70
2023/04/02 04:46:42;;;;;;;1.05;0.30;;;;;;;2.50;100.00;101529.34;6257825;28;20055;-70
2023/04/02 04:49:47;;;;;;;4.55;0.63;;;;;;;2.60;100.00;101535.31;6273927;28;20049;-70
2023/04/02 04:52:50;;;;;;;1.33;0.93;;;;;;;2.50;100.00;101543.16;6275217;28;20055;-70
2023/04/02 04:55:54;;;;;;;0.22;0.22;;;;;;;2.63;100.00;101546.50;6275037;28;20052;-70
2023/04/02 04:59:00;;;;;;;1.83;0.70;;;;;;;2.48;100.00;101552.66;6274976;28;20072;-70
2023/04/02 05:02:07;;;;;;;1.10;0.60;;;;;;;2.47;100.00;101560.47;6275179;28;20060;-70
2023/04/02 05:05:18;;;;;;;9.23;0.93;;;;;;;2.47;100.00;101566.53;6274977;28;20064;-70
2023/04/02 05:08:26;;;;;;;3.92;0.50;;;;;;;2.52;100.00;101566.47;6276315;28;20053;-70
2023/04/02 05:11:32;;;;;;;1.20;0.60;;;;;;;2.50;100.00;101578.63;6279788;28;20126;-70
2023/04/02 05:14:38;;;;;;;1.67;0.93;;;;;;;2.31;100.00;101583.03;6280041;28;20461;-70
2023/04/02 05:17:45;;;;;;;0.88;0.45;;;;;;;2.39;100.00;101586.44;6279483;28;20048;-70
2023/04/02 05:20:51;;;;;;;1.05;0.57;;;;;;;2.36;100.00;101593.38;6279496;28;20071;-70
2023/04/02 05:24:00;;;;;;;0.30;0.30;;;;;;;2.43;100.00;101598.53;6279540;28;20052;-70
2023/04/02 05:27:09;;;;;;;5.15;0.65;;;;;;;2.29;100.00;101603.81;6279392;28;20444;-70
2023/04/02 05:30:20;;;;;;;1.08;0.55;;;;;;;2.33;100.00;101607.25;6279551;28;20052;-70
2023/04/02 05:33:25;;;;;;;0.50;0.30;;;;;;;2.41;100.00;101617.59;6279524;28;20049;-72
2023/04/02 05:36:29;;;;;;;1.10;0.50;;;;;;;2.41;100.00;101627.97;6279451;28;20056;-69
2023/04/02 05:39:32;;;;;;;1.95;0.70;;;;;;;2.35;100.00;101635.75;6279127;28;20344;-69
2023/04/02 05:42:36;;;;;;;0.90;0.57;;;;;;;2.39;100.00;101635.72;6279178;28;20045;-69
2023/04/02 05:45:41;;;;;;;0.80;0.40;;;;;;;2.41;100.00;101641.78;6279182;28;20051;-69
2023/04/02 05:48:46;;;;;;;2.42;0.50;;;;;;;2.32;100.00;101660.00;6278679;28;20040;-69
2023/04/02 05:51:52;;;;;;;1.40;0.65;;;;;;;2.44;100.00;101665.09;6279202;28;20049;-69
2023/04/02 05:55:02;;;;;;;4.80;0.60;;;;;;;2.46;100.00;101672.91;6278982;28;20049;-69
2023/04/02 05:58:07;;;;;;;3.38;1.10;;;;;;;2.46;100.00;101668.56;6278865;28;20460;-69
2023/04/02 06:01:19;;;;;;;0.77;0.32;;;;;;;2.54;100.00;101665.91;6279077;28;20105;-70
2023/04/02 06:04:28;;;;;;;1.77;0.85;;;;;;;2.46;100.00;101678.09;6278939;28;20498;-72
2023/04/02 06:07:36;;;;;;;0.50;0.50;;;;;;;2.53;100.00;101679.75;6278378;28;20045;-70
2023/04/02 06:10:47;;;;;;;2.42;0.80;;;;;;;2.60;100.00;101693.56;6278490;28;20060;-70
2023/04/02 06:13:48;;;;;;;2.92;1.20;;;;;;;2.49;100.00;101691.03;6278473;28;20471;-70
2023/04/02 06:16:50;;;;;;;3.03;0.88;;;;;;;2.52;100.00;101706.59;6278358;28;20438;-70
2023/04/02 06:19:54;;;;;;;7.63;1.80;;;;;;;2.68;100.00;101702.16;6276835;28;20052;-69
2023/04/02 06:22:59;;;;;;;2.05;0.40;;;;;;;2.64;100.00;101705.66;6278385;28;20075;-69
2023/04/02 06:26:05;;;;;;;2.03;0.88;;;;;;;2.74;100.00;101717.72;6278111;28;20056;-69
2023/04/02 06:29:13;;;;;;;5.88;1.58;;;;;;;2.71;100.00;101722.91;6278136;28;20049;-69
2023/04/02 06:32:15;;;;;;;13.38;1.58;;;;;;;2.74;100.00;101728.97;6278021;28;20052;-69
2023/04/02 06:35:17;;;;;;;5.10;1.63;;;;;;;2.79;100.00;101734.13;6277922;28;20056;-70
2023/04/02 06:38:22;;;;;;;0.93;0.68;;;;;;;2.80;100.00;101748.81;6277108;28;20565;-70
2023/04/02 06:41:25;;;;;;;2.10;1.17;;;;;;;2.77;100.00;101756.63;6274987;28;20044;-70
2023/04/02 06:44:31;;;;;;;0.47;0.40;;;;;;;2.77;100.00;101762.69;6277237;28;20052;-70
2023/04/02 06:47:37;;;;;;;4.47;1.65;;;;;;;2.88;100.00;101762.63;6277044;28;20594;-69
2023/04/02 06:50:45;;;;;;;0.95;0.60;;;;;;;2.93;100.00;101770.41;6277204;28;20041;-69
2023/04/02 06:53:48;;;;;;;10.15;2.00;;;;;;;2.97;100.00;101779.91;6274835;28;20132;-70
2023/04/02 06:56:52;;;;;;;3.72;1.17;;;;;;;3.01;100.00;101782.47;6276763;28;20055;-70
2023/04/02 06:59:53;;;;;;;0.40;0.38;;;;;;;3.13;100.00;101788.44;6276817;28;20052;-70
2023/04/02 07:02:55;;;;;;;0.95;0.50;;;;;;;3.07;100.00;101801.47;6276818;28;20061;-70
2023/04/02 07:05:58;;;;;;;3.70;0.95;;;;;;;2.98;100.00;101807.56;6275900;28;20069;-70
2023/04/02 07:09:00;;;;;;;1.58;0.60;;;;;;;3.00;100.00;101805.84;6276229;28;20041;-70
2023/04/02 07:12:10;;;;;;;1.27;0.52;;;;;;;3.09;100.00;101804.91;6276534;28;20060;-70
2023/04/02 07:15:15;;;;;;;0.32;0.32;;;;;;;3.13;100.00;101815.28;6276668;28;20460;-70
2023/04/02 07:18:24;;;;;;;0.45;0.30;;;;;;;3.18;100.00;101820.44;6275964;28;20045;-69
2023/04/02 07:21:26;;;;;;;2.92;1.10;;;;;;;3.18;100.00;101826.53;6274130;28;20044;-70
2023/04/02 07:24:27;;;;;;;2.42;0.75;;;;;;;3.19;100.00;101832.59;6276258;28;20102;-69
2023/04/02 07:27:30;;;;;;;4.20;1.05;;;;;;;3.07;100.00;101837.84;6276067;28;20049;-69
2023/04/02 07:30:32;;;;;;;2.10;0.65;;;;;;;3.10;100.00;101843.03;6275799;28;20049;-70
2023/04/02 07:33:33;;;;;;;0.90;0.65;;;;;;;3.18;100.00;101841.22;6276207;28;20052;-70
2023/04/02 07:36:35;;;;;;;0.38;0.38;;;;;;;3.28;100.00;101850.72;6276204;28;20056;-70
2023/04/02 07:39:36;;;;;;;0.68;0.30;;;;;;;3.28;100.00;101854.16;6276428;28;20045;-69
2023/04/02 07:42:39;;;;;;;2.47;0.55;;;;;;;3.38;100.00;101849.78;6270732;28;20438;-69
2023/04/02 07:45:40;;;;;;;3.45;0.50;;;;;;;3.48;100.00;101855.78;6276109;28;20056;-70
2023/04/02 07:48:42;;;;;;;0.60;0.40;;;;;;;3.52;100.00;101863.56;6276019;28;20048;-69
2023/04/02 07:51:43;;;;;;;1.92;0.95;;;;;;;3.43;100.00;101868.81;6275914;28;20049;-69
2023/04/02 07:54:44;;;;;;;2.20;0.85;;;;;;;3.49;100.00;101876.56;6276391;28;20049;-69
2023/04/02 07:57:52;;;;;;;1.17;0.40;;;;;;;3.54;100.00;101885.22;6275791;28;20046;-69
2023/04/02 08:00:54;;;;;;;0.25;0.25;;;;;;;3.61;100.00;101898.16;6276702;28;20044;-70
2023/04/02 08:03:56;;;;;;;0.40;0.40;;;;;;;3.50;100.00;101893.03;6275967;28;20053;-70
2023/04/02 08:06:58;;;;;;;2.67;0.50;;;;;;;3.42;100.00;101900.88;6275793;28;20052;-73
2023/04/02 08:09:59;;;;;;;0.50;0.35;;;;;;;3.52;100.00;101907.72;6275698;28;20045;-70
2023/04/02 08:13:02;;;;;;;6.65;1.13;;;;;;;3.58;100.00;101905.97;6275966;28;20057;-70
2023/04/02 08:16:05;;;;;;;0.60;0.25;;;;;;;3.67;100.00;101921.50;6275600;28;20049;-70
2023/04/02 08:19:07;;;;;;;1.00;0.60;;;;;;;3.66;100.00;101918.03;6275277;28;20056;-70
2023/04/02 08:22:08;;;;;;;0.52;0.43;;;;;;;3.72;100.00;101931.00;6275505;28;20048;-70
2023/04/02 08:25:10;;;;;;;0.30;0.30;;;;;;;3.82;100.00;101937.03;6275497;28;20354;-70
2023/04/02 08:28:13;;;;;;;0.38;0.38;;;;;;;3.78;100.00;101937.91;6275349;28;20140;-70
2023/04/02 08:31:14;;;;;;;2.38;0.60;;;;;;;3.69;100.00;101949.22;6275320;28;20134;-70
2023/04/02 08:34:15;;;;;;;3.88;0.77;;;;;;;3.64;100.00;101945.81;6275587;28;20060;-70
2023/04/02 08:37:17;;;;;;;6.25;0.65;;;;;;;3.81;100.00;101956.97;6275161;28;20053;-71
2023/04/02 08:40:24;;;;;;;1.05;0.40;;;;;;;3.80;100.00;101962.16;6275598;28;20053;-70
2023/04/02 08:44:00;;;;;;;1.00;0.40;;;;;;;3.77;100.00;101967.38;6273222;28;20052;-70
2023/04/02 08:47:05;;;;;;;1.02;0.65;;;;;;;3.84;100.00;101973.41;6270237;28;20044;-70
2023/04/02 08:50:14;;;;;;;6.22;0.60;;;;;;;3.83;100.00;101984.69;6274700;28;20048;-70
2023/04/02 08:53:19;;;;;;;5.28;0.80;;;;;;;3.91;100.00;101980.31;6273713;28;20123;-69
2023/04/02 08:56:26;;;;;;;0.82;0.60;;;;;;;3.99;100.00;101991.50;6274824;28;20051;-70
2023/04/02 08:59:33;;;;;;;0.73;0.40;;;;;;;4.03;100.00;101991.47;6275065;28;20052;-70
2023/04/02 09:02:40;;;;;;;1.02;0.60;;;;;;;4.21;100.00;102007.84;6274934;28;20045;-69
2023/04/02 09:05:43;;;;;;;2.40;0.70;;;;;;;4.13;100.00;102005.28;6274908;28;20570;-69
2023/04/02 09:08:48;;;;;;;1.67;0.40;;;;;;;4.20;100.00;102013.94;6274755;28;20049;-69
2023/04/02 09:11:53;;;;;;;0.38;0.35;;;;;;;4.28;100.00;102010.41;6275186;28;20100;-69
2023/04/02 09:15:06;;;;;;;1.60;0.52;;;;;;;4.41;100.00;102024.22;6273907;28;20053;-70
2023/04/02 09:18:13;;;;;;;0.55;0.50;;;;;;;4.36;100.00;102025.09;6270272;28;20053;-69
2023/04/02 09:21:34;;;;;;;3.22;0.63;;;;;;;4.30;100.00;102021.66;6264901;28;20041;-70
2023/04/02 09:24:36;;;;;;;3.65;0.43;;;;;;;4.32;100.00;102037.28;6269437;28;20052;-70
2023/04/02 09:27:37;;;;;;;1.08;0.50;;;;;;;4.48;100.00;102038.03;6268057;28;20127;-69
2023/04/02 09:31:04;;;;;;;3.10;0.70;;;;;;;4.62;100.00;102030.97;6273964;28;20429;-69
2023/04/02 09:34:28;;;;;;;1.42;0.50;;;;;;;4.71;100.00;102041.31;6274272;28;20459;-69
2023/04/02 09:37:29;;;;;;;2.40;0.50;;;;;;;4.73;100.00;102055.19;6274179;28;20402;-70
2023/04/02 09:40:40;;;;;;;3.88;0.40;;;;;;;4.82;100.00;102043.84;6274760;28;20048;-69
2023/04/02 09:43:41;;;;;;;4.85;0.95;;;;;;;4.71;100.00;102056.94;6272630;28;20071;-69
2023/04/02 09:47:06;;;;;;;0.90;0.30;;;;;;;4.94;100.00;102058.47;6274082;28;20048;-69
2023/04/02 09:50:23;;;;;;;1.02;0.60;;;;;;;4.91;100.00;102061.13;6269526;28;20198;-69
2023/04/02 09:53:29;;;;;;;3.53;0.38;;;;;;;4.70;100.00;102062.16;6271664;28;20052;-69
2023/04/02 09:56:32;;;;;;;3.13;0.60;;;;;;;4.88;100.00;102067.22;6278483;28;20453;-69
2023/04/02 09:59:34;;;;;;;6.45;1.23;;;;;;;4.90;100.00;102068.06;6277737;28;20048;-69
2023/04/02 10:02:36;;;;;;;2.17;0.52;;;;;;;4.95;100.00;102076.72;6276352;28;20048;-69
2023/04/02 10:05:38;;;;;;;2.90;0.55;;;;;;;4.98;100.00;102074.06;6277672;28;20053;-69
2023/04/02 10:08:41;;;;;;;0.30;0.30;;;;;;;5.03;100.00;102080.09;6278172;28;20049;-69
2023/04/02 10:11:43;;;;;;;7.22;0.95;;;;;;;5.21;100.00;102070.38;6278415;28;20449;-69
2023/04/02 10:14:47;;;;;;;0.60;0.60;;;;;;;5.42;100.00;102070.19;6278519;28;20053;-70
2023/04/02 10:17:57;;;;;;;0.77;0.50;;;;;;;5.58;100.00;102073.47;6277981;28;20056;-69
2023/04/02 10:21:01;;;;;;;1.00;0.55;;;;;;;5.72;100.00;102076.81;6278079;28;20056;-69
2023/04/02 10:24:02;;;;;;;0.93;0.40;;;;;;;5.74;100.00;102082.84;6278164;28;20053;-69
2023/04/02 10:27:16;;;;;;;4.93;0.60;;;;;;;5.76;100.00;102085.44;6271294;28;20344;-75
2023/04/02 10:30:23;;;;;;;2.60;0.63;;;;;;;5.98;100.00;102086.06;6277839;28;20045;-70
2023/04/02 10:33:32;;;;;;;1.08;0.70;;;;;;;6.07;100.00;102094.63;6277949;28;20048;-70
2023/04/02 10:36:47;;;;;;;0.22;0.22;;;;;;;6.31;100.00;102095.19;6277652;28;20049;-70
2023/04/02 10:39:53;;;;;;;1.90;0.75;;;;;;;6.25;100.00;102105.72;6277947;28;20092;-71
2023/04/02 10:43:09;;;;;;;4.25;0.60;;;;;;;6.31;100.00;102103.91;6257520;28;20053;-70
2023/04/02 10:46:17;;;;;;;1.50;0.57;;;;;;;6.51;100.00;102102.75;6252417;28;20136;-70
2023/04/02 10:49:30;;;;;;;3.83;0.60;;;;;;;6.83;100.00;102108.34;6270245;28;20037;-70
2023/04/02 10:52:38;;;;;;;1.48;0.85;;;;;;;7.07;100.00;102116.66;6269666;28;20391;-70
2023/04/02 10:55:43;;;;;;;2.05;0.77;;;;;;;7.10;100.00;102116.63;6272823;28;20041;-70
2023/04/02 10:58:53;;;;;;;1.67;0.60;;;;;;;7.02;100.00;102121.09;6277249;28;20047;-70
2023/04/02 11:01:57;;;;;;;;;;;;;;;6.81;100.00;102120.59;6277754;28;20049;-70
2023/04/02 11:05:03;;;;;;;0.93;0.60;;;;;;;6.61;100.00;102118.25;6277172;28;19927;-70
2023/04/02 11:08:10;;;;;;;2.10;1.17;;;;;;;6.52;100.00;102120.16;6276767;28;20059;-70
2023/04/02 11:11:15;;;;;;;7.57;1.08;;;;;;;6.51;100.00;102119.28;6276947;28;20041;-69
2023/04/02 11:14:19;;;;;;;1.42;0.60;;;;;;;6.38;100.00;102124.69;6277552;28;20048;-70
2023/04/02 11:17:21;;;;;;;3.13;0.32;;;;;;;6.29;100.00;102120.47;6276324;28;20052;-69
2023/04/02 11:20:55;;;;;;;1.83;0.57;;;;;;;6.39;100.00;102121.19;6276777;28;20473;-69
2023/04/02 11:23:59;;;;;;;1.55;0.50;;;;;;;6.57;100.00;102126.16;6276891;28;20099;-69
2023/04/02 11:27:07;;;;;;;1.05;0.70;;;;;;;6.78;100.00;102132.81;6268602;28;20040;-70
2023/04/02 11:30:22;;;;;;;0.30;0.30;;;;;;;6.98;100.00;102142.94;6276637;28;20098;-69
2023/04/02 11:33:39;;;;;;;6.00;0.73;;;;;;;7.07;100.00;102141.06;6276746;28;20056;-70
2023/04/02 11:37:10;;;;;;;1.67;0.70;;;;;;;7.58;100.00;102135.78;6276320;28;20460;-70
2023/04/02 11:40:46;;;;;;;2.05;0.70;;;;;;;8.01;100.00;102139.34;6241380;28;20049;-69
2023/04/02 11:44:00;;;;;;;0.60;0.50;;;;;;;8.20;93.97;102137.22;6275582;28;20059;-71
2023/04/02 11:47:16;;;;;;;0.90;0.47;;;;;;;8.49;100.00;102134.84;6272192;28;20045;-70
2023/04/02 11:50:28;;;;;;;0.85;0.38;;;;;;;8.54;94.25;102135.63;6259472;28;20041;-70
2023/04/02 11:53:34;;;;;;;3.30;0.55;;;;;;;8.72;90.23;102136.97;6251280;28;20053;-70
2023/04/02 11:56:44;;;;;;;0.63;0.40;;;;;;;8.89;90.28;102144.41;6267249;28;20118;-70
2023/04/02 11:59:58;;;;;;;1.65;0.40;;;;;;;9.17;98.74;102138.50;6269793;28;20422;-70
2023/04/02 12:03:24;;;;;;;0.30;0.30;;;;;;;9.49;96.82;102140.28;6270889;28;20045;-70
2023/04/02 12:06:38;;;;;;;1.90;0.90;;;;;;;9.64;87.04;102150.38;6275925;28;20053;-70
2023/04/02 12:09:46;;;;;;;0.63;0.40;;;;;;;9.91;90.02;102143.53;6275526;28;20045;-70
2023/04/02 12:12:49;;;;;;;1.75;0.50;;;;;;;10.13;81.51;102154.28;6275676;28;20051;-70
2023/04/02 12:15:52;;;;;;;4.18;0.88;;;;;;;10.14;83.06;102153.38;6275361;28;20048;-70
2023/04/02 12:18:54;;;;;;;0.65;0.30;;;;;;;10.29;86.45;102147.69;6274394;28;20045;-69
2023/04/02 12:21:55;;;;;;;2.22;0.77;;;;;;;10.46;81.85;102151.59;6275516;28;20049;-70
2023/04/02 12:25:03;;;;;;;1.75;0.30;;;;;;;10.59;80.50;102148.53;6275863;28;20049;-70
2023/04/02 12:28:08;;;;;;;0.70;0.45;;;;;;;10.04;76.97;102144.03;6275371;28;20052;-69
2023/04/02 12:31:13;;;;;;;1.02;0.47;;;;;;;10.28;76.62;102151.22;6275383;28;20056;-70
2023/04/02 12:34:17;;;;;;;0.75;0.40;;;;;;;10.62;78.19;102148.44;6273446;28;20049;-69
2023/04/02 12:37:24;;;;;;;1.13;0.40;;;;;;;10.92;74.28;102162.38;6268140;28;20120;-69
2023/04/02 12:40:28;;;;;;;0.60;0.28;;;;;;;11.13;77.07;102160.84;6269621;28;20041;-69
2023/04/02 12:43:31;;;;;;;0.47;0.45;;;;;;;11.11;75.37;102169.69;6270737;28;20041;-70
2023/04/02 12:46:34;;;;;;;1.02;0.40;;;;;;;10.75;73.59;102167.31;6274375;28;20049;-69
2023/04/02 12:49:38;;;;;;;0.25;0.25;;;;;;;10.82;74.44;102165.38;6272654;28;20052;-69
2023/04/02 12:52:44;;;;;;;2.30;0.35;;;;;;;11.11;74.50;102173.16;6269588;28;20049;-70
2023/04/02 12:55:48;;;;;;;0.30;0.20;;;;;;;11.50;74.02;102182.44;6274137;28;20361;-69
2023/04/02 12:58:54;;;;;;;5.00;0.65;;;;;;;11.13;64.43;102183.66;6272846;28;20456;-70
2023/04/02 13:01:57;;;;;;;1.75;0.38;;;;;;;10.95;68.62;102182.47;6273414;28;20049;-70
2023/04/02 13:05:01;;;;;;;1.23;0.40;;;;;;;11.33;71.47;102186.47;6275058;28;20476;-70
2023/04/02 13:08:04;;;;;;;1.50;0.50;;;;;;;11.30;67.61;102181.31;6274717;28;20821;-70
2023/04/02 13:11:07;;;;;;;0.40;0.40;;;;;;;11.59;66.31;102175.09;6274719;28;20055;-69
2023/04/02 13:14:18;;;;;;;0.82;0.40;;;;;;;11.77;66.51;102170.94;6274844;28;20052;-69
2023/04/02 13:17:42;;;;;;;0.93;0.70;;;;;;;12.08;66.60;102169.84;6274611;28;20049;-70
2023/04/02 13:20:54;;;;;;;6.20;0.73;;;;;;;12.02;64.70;102162.19;6274603;28;20041;-69
2023/04/02 13:23:56;;;;;;;1.13;0.45;;;;;;;11.40;63.68;102181.91;6272785;28;20069;-70
2023/04/02 13:27:00;;;;;;;0.55;0.40;;;;;;;10.89;69.36;102180.03;6273966;28;20056;-71
2023/04/02 13:30:08;;;;;;;4.22;0.47;;;;;;;11.36;67.62;102185.53;6276790;28;20152;-69
2023/04/02 13:33:09;;;;;;;1.42;0.70;;;;;;;11.35;68.88;102186.44;6278856;28;20055;-69
2023/04/02 13:36:13;;;;;;;0.50;0.30;;;;;;;11.30;69.45;102177.81;6279091;28;20045;-70
2023/04/02 13:39:14;;;;;;;1.45;0.47;;;;;;;11.65;65.57;102174.00;6279179;28;20048;-70
2023/04/02 13:42:18;;;;;;;1.38;0.28;;;;;;;11.94;62.88;102175.63;6279427;28;20107;-70
2023/04/02 13:45:25;;;;;;;0.20;0.20;;;;;;;12.10;59.78;102166.25;6279163;28;20472;-70
2023/04/02 13:48:27;;;;;;;0.30;0.30;;;;;;;12.29;62.09;102173.47;6279029;28;20053;-70
2023/04/02 13:51:35;;;;;;;2.67;0.30;;;;;;;11.82;65.23;102181.31;6278617;28;20362;-70
2023/04/02 13:54:43;;;;;;;0.55;0.25;;;;;;;11.85;61.22;102189.97;6278942;28;20045;-69
2023/04/02 13:57:45;;;;;;;1.23;0.55;;;;;;;11.46;62.92;102199.25;6278674;28;20049;-70
2023/04/02 14:00:47;;;;;;;0.40;0.30;;;;;;;11.40;64.05;102195.91;6278766;28;20330;-70
2023/04/02 14:03:49;;;;;;;1.25;0.50;;;;;;;11.50;60.68;102203.50;6278819;28;20053;-70
2023/04/02 14:07:18;;;;;;;4.18;0.50;;;;;;;11.85;63.67;102203.16;6276958;28;20128;-70
2023/04/02 14:10:29;;;;;;;0.40;0.40;;;;;;;11.83;59.38;102199.72;6276023;28;20041;-70
2023/04/02 14:13:44;;;;;;;1.10;0.50;;;;;;;11.55;61.22;102217.38;6275705;28;20144;-69
2023/04/02 14:16:59;;;;;;;1.80;0.35;;;;;;;11.05;57.90;102218.09;6275382;28;20052;-70
2023/04/02 14:20:16;;;;;;;1.38;0.60;;;;;;;10.69;61.55;102211.34;6275804;28;20041;-70
2023/04/02 14:23:36;;;;;;;2.15;0.30;;;;;;;10.58;64.08;102209.03;6277938;28;20051;-71
2023/04/02 14:26:46;;;;;;;0.80;0.35;;;;;;;11.02;64.73;102212.06;6260261;28;20044;-70
2023/04/02 14:29:59;;;;;;;3.08;0.30;;;;;;;11.54;60.29;102211.25;6277841;28;20045;-70
2023/04/02 14:33:09;;;;;;;2.85;0.52;;;;;;;12.13;59.00;102200.41;6278066;28;20091;-70